Time;durP1;ratioP1;P1;durP2;ratioP2;P2;SDS_P1;SDS_P2;PMS_P1;PMS_P2;Temp;Humidity;BMP_temperature;BMP_pressure;BME280_temperature;BME280_humidity;BME280_pressure;Samples;Min_cycle;Max_cycle;Signal;HPM_P1;HPM_P2
2021/07/09 00:02:33;;;;;;;18.80;12.80;;;17.90;99.90;;;;;;5095484;28;20467;-82
2021/07/09 00:05:00;;;;;;;18.37;13.03;;;17.90;99.90;;;;;;5095501;28;20453;-82
2021/07/09 00:07:27;;;;;;;19.23;12.87;;;18.00;99.90;;;;;;5096478;28;20470;-82
2021/07/09 00:09:54;;;;;;;19.43;13.00;;;18.00;99.90;;;;;;5095715;28;20453;-82
2021/07/09 00:12:21;;;;;;;18.27;13.40;;;18.00;99.90;;;;;;5097058;28;20469;-82
2021/07/09 00:14:48;;;;;;;20.37;14.27;;;18.00;99.90;;;;;;5096454;28;20474;-82
2021/07/09 00:17:15;;;;;;;19.70;14.30;;;18.00;99.90;;;;;;5096442;28;20816;-82
2021/07/09 00:19:43;;;;;;;19.60;13.80;;;18.00;99.90;;;;;;5096985;28;20461;-82
2021/07/09 00:22:10;;;;;;;19.77;13.43;;;18.00;99.90;;;;;;5096576;28;20458;-82
2021/07/09 00:24:38;;;;;;;18.20;12.60;;;18.00;99.90;;;;;;5097161;28;20442;-82
2021/07/09 00:27:06;;;;;;;22.83;14.60;;;18.10;99.90;;;;;;5097122;28;20476;-81
2021/07/09 00:29:32;;;;;;;19.63;14.07;;;18.10;99.90;;;;;;5095777;28;20446;-81
2021/07/09 00:31:59;;;;;;;17.47;13.03;;;18.10;99.90;;;;;;5096041;28;20453;-81
2021/07/09 00:34:26;;;;;;;18.67;13.07;;;18.10;99.90;;;;;;5097592;28;20446;-82
2021/07/09 00:36:54;;;;;;;20.63;15.00;;;18.10;99.90;;;;;;5099904;28;20489;-81
2021/07/09 00:39:21;;;;;;;19.90;13.63;;;18.10;99.90;;;;;;5099172;28;20445;-81
2021/07/09 00:41:48;;;;;;;22.53;13.17;;;18.10;99.90;;;;;;5099448;28;20912;-82
2021/07/09 00:44:15;;;;;;;19.20;12.47;;;18.10;99.90;;;;;;5100163;28;20450;-82
2021/07/09 00:46:42;;;;;;;18.53;12.77;;;18.20;99.90;;;;;;5099184;28;20480;-81
2021/07/09 00:49:11;;;;;;;19.07;13.63;;;18.10;99.90;;;;;;5099176;28;20453;-81
2021/07/09 00:51:39;;;;;;;18.47;12.10;;;18.10;99.90;;;;;;5096260;28;20973;-81
2021/07/09 00:54:08;;;;;;;19.80;11.93;;;18.10;99.90;;;;;;5099796;28;20464;-81
2021/07/09 00:56:37;;;;;;;19.17;13.60;;;18.10;99.90;;;;;;5099059;28;21082;-82
2021/07/09 00:59:04;;;;;;;19.60;13.37;;;18.10;99.90;;;;;;5099599;28;20541;-81
2021/07/09 01:01:32;;;;;;;18.83;12.73;;;18.10;99.90;;;;;;5099542;28;20996;-82
2021/07/09 01:03:59;;;;;;;18.27;12.83;;;18.10;99.90;;;;;;5098868;28;20457;-82
2021/07/09 01:06:27;;;;;;;20.13;13.80;;;18.10;99.90;;;;;;5098680;28;20523;-82
2021/07/09 01:08:54;;;;;;;22.30;14.27;;;18.00;99.90;;;;;;5098486;28;20511;-81
2021/07/09 01:11:24;;;;;;;21.07;14.07;;;18.00;99.90;;;;;;5099564;28;20453;-81
2021/07/09 01:13:52;;;;;;;18.93;14.37;;;18.00;99.90;;;;;;5079240;28;20537;-82
2021/07/09 01:16:19;;;;;;;20.13;14.67;;;18.00;99.90;;;;;;5078993;28;20490;-81
2021/07/09 01:18:46;;;;;;;19.57;14.57;;;18.00;99.90;;;;;;5079548;28;20454;-82
2021/07/09 01:21:14;;;;;;;20.93;14.60;;;18.00;99.90;;;;;;5085000;28;20500;-81
2021/07/09 01:23:42;;;;;;;20.70;13.23;;;18.00;99.90;;;;;;5098760;28;20828;-82
2021/07/09 01:26:11;;;;;;;19.87;14.53;;;18.00;99.90;;;;;;5098124;28;20473;-81
2021/07/09 01:28:39;;;;;;;26.13;14.27;;;18.00;99.90;;;;;;5098607;28;20450;-82
2021/07/09 01:31:08;;;;;;;19.03;13.67;;;18.10;99.90;;;;;;5099304;28;20445;-82
2021/07/09 01:33:35;;;;;;;21.20;13.90;;;18.00;99.90;;;;;;5098205;28;20462;-82
2021/07/09 01:36:02;;;;;;;20.40;14.43;;;18.10;99.90;;;;;;5098755;28;20485;-82
2021/07/09 01:38:29;;;;;;;19.03;13.07;;;18.00;99.90;;;;;;5097864;28;20829;-82
2021/07/09 01:40:55;;;;;;;17.37;13.53;;;18.10;99.90;;;;;;5098968;28;20450;-82
2021/07/09 01:43:25;;;;;;;20.77;14.70;;;18.00;99.90;;;;;;5098560;28;20452;-83
2021/07/09 01:45:52;;;;;;;21.93;14.97;;;18.00;99.90;;;;;;5100147;28;20502;-81
2021/07/09 01:48:19;;;;;;;18.23;13.63;;;18.00;99.90;;;;;;5103674;28;20457;-82
2021/07/09 01:50:46;;;;;;;21.23;14.90;;;18.00;99.90;;;;;;5101102;28;20450;-84
2021/07/09 01:53:13;;;;;;;19.10;14.37;;;18.00;99.90;;;;;;5100677;28;20450;-83
2021/07/09 01:55:40;;;;;;;23.30;13.13;;;18.00;99.90;;;;;;5100426;28;20482;-82
2021/07/09 01:58:07;;;;;;;21.40;14.27;;;18.00;99.90;;;;;;5100844;28;20984;-83
2021/07/09 02:00:35;;;;;;;18.13;13.73;;;18.00;99.90;;;;;;5101636;28;20441;-82
2021/07/09 02:03:03;;;;;;;19.17;13.57;;;18.00;99.90;;;;;;5102542;28;20962;-83
2021/07/09 02:05:31;;;;;;;23.40;15.00;;;18.00;99.90;;;;;;5089589;28;20446;-83
2021/07/09 02:07:58;;;;;;;19.90;14.00;;;18.00;99.90;;;;;;5101365;28;20815;-83
2021/07/09 02:10:27;;;;;;;21.63;14.33;;;18.00;99.90;;;;;;5103527;28;20446;-83
2021/07/09 02:12:55;;;;;;;21.37;14.83;;;17.90;99.90;;;;;;5103712;28;20443;-84
2021/07/09 02:15:25;;;;;;;18.83;14.27;;;18.00;99.90;;;;;;5102450;28;20474;-84
2021/07/09 02:17:54;;;;;;;19.83;14.00;;;17.90;99.90;;;;;;5103960;28;20537;-84
2021/07/09 02:20:26;;;;;;;20.17;14.77;;;17.90;99.90;;;;;;5103135;28;20896;-84
2021/07/09 02:22:55;;;;;;;20.80;14.87;;;17.90;99.90;;;;;;5104527;28;20441;-84
2021/07/09 02:25:22;;;;;;;23.87;14.77;;;17.90;99.90;;;;;;5103813;28;20438;-83
2021/07/09 02:27:51;;;;;;;20.40;15.23;;;17.90;99.90;;;;;;5103897;28;20496;-84
2021/07/09 02:30:19;;;;;;;20.40;14.53;;;18.00;99.90;;;;;;5101411;28;20446;-84
2021/07/09 02:32:47;;;;;;;24.13;13.87;;;18.00;99.90;;;;;;5101640;28;20442;-84
2021/07/09 02:35:17;;;;;;;20.40;14.40;;;18.00;99.90;;;;;;5102201;28;20492;-85
2021/07/09 02:37:45;;;;;;;19.87;14.43;;;18.00;99.90;;;;;;5100554;28;20549;-84
2021/07/09 02:40:14;;;;;;;21.23;14.00;;;18.00;99.90;;;;;;5100197;28;20482;-84
2021/07/09 02:42:42;;;;;;;19.20;13.63;;;18.00;99.90;;;;;;5100957;28;20470;-83
2021/07/09 02:45:10;;;;;;;26.57;13.87;;;18.00;99.90;;;;;;5101004;28;20848;-84
2021/07/09 02:47:37;;;;;;;19.33;13.03;;;18.00;99.90;;;;;;5100079;28;20473;-84
2021/07/09 02:50:07;;;;;;;21.80;15.40;;;18.00;99.90;;;;;;5099364;28;20450;-84
2021/07/09 02:52:35;;;;;;;19.10;13.20;;;18.00;99.90;;;;;;5100487;28;20489;-84
2021/07/09 02:55:02;;;;;;;20.33;15.30;;;18.00;99.90;;;;;;5100354;28;20494;-85
2021/07/09 02:57:29;;;;;;;22.00;14.10;;;18.00;99.90;;;;;;5100488;28;20466;-84
2021/07/09 02:59:56;;;;;;;24.43;17.47;;;18.00;99.90;;;;;;5098848;28;20541;-84
2021/07/09 03:02:23;;;;;;;19.50;15.33;;;18.00;99.90;;;;;;5099318;28;20446;-85
2021/07/09 03:04:50;;;;;;;21.20;15.27;;;18.00;99.90;;;;;;5098996;28;20453;-84
2021/07/09 03:07:16;;;;;;;23.07;16.33;;;18.00;99.90;;;;;;5099431;28;20486;-84
2021/07/09 03:09:45;;;;;;;25.80;17.00;;;18.00;99.90;;;;;;5099748;28;20601;-84
2021/07/09 03:12:11;;;;;;;22.73;15.73;;;18.00;99.90;;;;;;5109165;28;20458;-83
2021/07/09 03:14:39;;;;;;;22.93;14.70;;;18.00;99.90;;;;;;5112137;28;20521;-83
2021/07/09 03:17:06;;;;;;;21.13;14.20;;;18.00;99.90;;;;;;5112398;28;20489;-84
2021/07/09 03:19:33;;;;;;;21.10;15.47;;;18.00;99.90;;;;;;5099513;28;20454;-84
2021/07/09 03:22:00;;;;;;;19.53;15.60;;;18.00;99.90;;;;;;5101537;28;20456;-84
2021/07/09 03:24:27;;;;;;;20.63;14.70;;;18.00;99.90;;;;;;5101463;28;20453;-83
2021/07/09 03:26:56;;;;;;;23.70;17.07;;;18.00;99.90;;;;;;5100067;28;20472;-84
2021/07/09 03:29:23;;;;;;;25.00;16.97;;;17.90;99.90;;;;;;5102204;28;20456;-83
2021/07/09 03:31:49;;;;;;;24.63;16.53;;;17.90;99.90;;;;;;5101223;28;20438;-84
2021/07/09 03:34:16;;;;;;;23.83;17.50;;;17.90;99.90;;;;;;5101987;28;20446;-83
2021/07/09 03:36:44;;;;;;;24.60;17.50;;;18.00;99.90;;;;;;5100915;28;20500;-85
2021/07/09 03:39:11;;;;;;;23.97;15.67;;;18.00;99.90;;;;;;5100726;28;20445;-83
2021/07/09 03:41:38;;;;;;;23.07;16.47;;;18.00;99.90;;;;;;5102691;28;20446;-84
2021/07/09 03:44:07;;;;;;;21.07;16.20;;;18.00;99.90;;;;;;5103116;28;20464;-83
2021/07/09 03:46:34;;;;;;;22.07;15.83;;;18.00;99.90;;;;;;5102362;28;20469;-83
2021/07/09 03:49:02;;;;;;;22.30;16.87;;;18.00;99.90;;;;;;5099101;28;20843;-84
2021/07/09 03:51:29;;;;;;;23.47;16.80;;;18.00;99.90;;;;;;5099804;28;20464;-84
2021/07/09 03:53:56;;;;;;;24.93;17.40;;;18.00;99.90;;;;;;5100727;28;20450;-85
2021/07/09 03:56:22;;;;;;;24.40;16.53;;;18.00;99.90;;;;;;5102649;28;20485;-84
2021/07/09 03:58:50;;;;;;;25.33;18.77;;;18.00;99.90;;;;;;5101412;28;20743;-83
2021/07/09 04:01:18;;;;;;;24.03;18.00;;;18.00;99.90;;;;;;5101468;28;20454;-84
2021/07/09 04:03:45;;;;;;;24.33;17.37;;;18.00;99.90;;;;;;5107229;28;20446;-85
2021/07/09 04:06:11;;;;;;;26.10;18.30;;;18.00;99.90;;;;;;5104877;28;21222;-85
2021/07/09 04:08:38;;;;;;;26.23;19.17;;;18.00;99.90;;;;;;5104288;28;20529;-83
2021/07/09 04:11:05;;;;;;;26.97;17.47;;;18.00;99.90;;;;;;5110723;28;20519;-84
2021/07/09 04:13:32;;;;;;;27.73;18.77;;;18.00;99.90;;;;;;5109715;28;20446;-83
2021/07/09 04:15:59;;;;;;;23.87;18.13;;;18.00;99.90;;;;;;5105100;28;20605;-84
2021/07/09 04:18:27;;;;;;;27.80;20.27;;;18.00;99.90;;;;;;5102748;28;20518;-84
2021/07/09 04:20:54;;;;;;;28.03;18.80;;;18.10;99.90;;;;;;5103636;28;20474;-85
2021/07/09 04:23:20;;;;;;;24.70;18.93;;;18.10;99.90;;;;;;5104116;28;20536;-85
2021/07/09 04:25:48;;;;;;;24.43;17.97;;;18.10;99.90;;;;;;5104355;28;20466;-84
2021/07/09 04:28:15;;;;;;;28.50;19.73;;;18.10;99.90;;;;;;5106086;28;20509;-83
2021/07/09 04:30:42;;;;;;;25.60;19.40;;;18.10;99.90;;;;;;5105956;28;20509;-85
2021/07/09 04:33:09;;;;;;;23.00;18.70;;;18.20;99.90;;;;;;5108162;28;20454;-85
2021/07/09 04:35:37;;;;;;;30.03;20.30;;;18.20;99.90;;;;;;5105679;28;20454;-84
2021/07/09 04:38:04;;;;;;;28.23;21.20;;;18.20;99.90;;;;;;5106928;28;20497;-84
2021/07/09 04:40:31;;;;;;;26.27;21.57;;;18.20;99.90;;;;;;5098631;28;20831;-85
2021/07/09 04:42:58;;;;;;;33.33;26.60;;;18.20;99.90;;;;;;5098007;28;20464;-84
2021/07/09 04:45:25;;;;;;;34.23;24.67;;;18.20;99.90;;;;;;5099001;28;20464;-83
2021/07/09 04:47:52;;;;;;;31.33;23.20;;;18.20;99.90;;;;;;5097780;28;20473;-83
2021/07/09 04:50:18;;;;;;;28.93;23.00;;;18.30;99.90;;;;;;5098106;28;20525;-82
2021/07/09 04:53:07;;;;;;;32.67;24.17;;;18.30;99.90;;;;;;5098839;28;20541;-86
2021/07/09 04:55:45;;;;;;;31.70;23.10;;;18.30;99.90;;;;;;5097960;28;20523;-86
2021/07/09 05:07:27;;;;;;;28.80;20.00;;;18.30;99.90;;;;;;5097747;28;20470;-87
2021/07/09 05:09:55;;;;;;;30.57;21.43;;;18.30;99.90;;;;;;5096447;28;20450;-88
2021/07/09 05:12:22;;;;;;;28.20;22.50;;;18.30;99.90;;;;;;5095914;28;20466;-87
2021/07/09 05:14:49;;;;;;;26.77;20.97;;;18.30;99.90;;;;;;5095684;28;20448;-88
2021/07/09 05:17:16;;;;;;;28.47;22.17;;;18.30;99.90;;;;;;5095626;28;20987;-88
2021/07/09 05:19:43;;;;;;;30.10;23.30;;;18.30;99.90;;;;;;5095494;28;20486;-89
2021/07/09 05:22:10;;;;;;;29.00;22.97;;;18.30;99.90;;;;;;5094068;28;20450;-88
2021/07/09 05:24:37;;;;;;;25.73;22.27;;;18.30;99.90;;;;;;5095581;28;20561;-88
2021/07/09 05:27:06;;;;;;;26.83;22.83;;;18.40;99.90;;;;;;5094947;28;20553;-88
2021/07/09 05:29:33;;;;;;;28.37;23.60;;;18.40;99.90;;;;;;5092142;28;20460;-88
2021/07/09 05:32:00;;;;;;;30.50;25.43;;;18.40;99.90;;;;;;5092368;28;20468;-88
2021/07/09 05:34:26;;;;;;;29.57;24.30;;;18.40;99.90;;;;;;5094311;28;20454;-88
2021/07/09 05:36:53;;;;;;;28.43;25.10;;;18.40;99.90;;;;;;5094090;28;20877;-87
2021/07/09 05:39:20;;;;;;;31.77;25.47;;;18.40;99.90;;;;;;5093868;28;20472;-88
2021/07/09 05:41:47;;;;;;;35.30;27.90;;;18.40;99.90;;;;;;5094200;28;20442;-88
2021/07/09 05:44:16;;;;;;;44.23;34.40;;;18.40;99.90;;;;;;5095106;28;20470;-87
2021/07/09 05:46:42;;;;;;;43.97;33.70;;;18.40;99.90;;;;;;5094442;28;20541;-87
2021/07/09 05:49:09;;;;;;;47.00;34.77;;;18.50;99.90;;;;;;5094609;28;20446;-84
2021/07/09 05:51:36;;;;;;;46.50;34.20;;;18.50;99.90;;;;;;5096948;28;20464;-82
2021/07/09 05:54:03;;;;;;;47.90;35.80;;;18.60;99.90;;;;;;5098644;28;20450;-83
2021/07/09 05:56:30;;;;;;;46.13;34.73;;;18.50;99.90;;;;;;5098400;28;20490;-82
2021/07/09 05:58:57;;;;;;;39.73;31.63;;;18.60;99.90;;;;;;5120592;22;20486;-84
2021/07/09 06:01:25;;;;;;;43.70;35.13;;;18.70;99.90;;;;;;5103367;28;20448;-85
2021/07/09 06:03:53;;;;;;;42.67;33.00;;;18.80;99.90;;;;;;5102103;28;20513;-85
2021/07/09 06:06:20;;;;;;;41.33;32.97;;;18.80;99.90;;;;;;5102293;28;20445;-84
2021/07/09 06:08:46;;;;;;;38.80;31.43;;;18.90;99.90;;;;;;5103778;28;21903;-84
2021/07/09 06:11:13;;;;;;;40.67;33.00;;;18.90;99.90;;;;;;5104116;28;20538;-84
2021/07/09 06:13:40;;;;;;;44.47;32.43;;;19.00;99.90;;;;;;5104479;28;20898;-84
2021/07/09 06:16:07;;;;;;;41.13;33.13;;;19.00;99.90;;;;;;5103305;28;20453;-84
2021/07/09 06:18:35;;;;;;;39.67;31.37;;;19.10;99.90;;;;;;5103235;28;20526;-85
2021/07/09 06:21:02;;;;;;;37.17;32.37;;;19.10;99.90;;;;;;5104662;28;20525;-84
2021/07/09 06:23:30;;;;;;;33.33;26.70;;;19.10;99.90;;;;;;5105191;28;20538;-84
2021/07/09 06:25:57;;;;;;;34.63;28.60;;;19.10;99.90;;;;;;5104790;28;20860;-84
2021/07/09 06:28:23;;;;;;;35.87;27.10;;;19.10;99.90;;;;;;5103886;28;20446;-85
2021/07/09 06:30:51;;;;;;;33.00;26.80;;;19.10;99.90;;;;;;5104526;28;20465;-84
2021/07/09 06:33:17;;;;;;;30.90;25.27;;;19.10;99.90;;;;;;5120656;28;20450;-82
2021/07/09 06:35:46;;;;;;;31.10;26.80;;;19.10;99.90;;;;;;5111854;28;20506;-83
2021/07/09 06:38:13;;;;;;;31.33;25.33;;;19.10;99.90;;;;;;5111242;28;20576;-84
2021/07/09 06:40:43;;;;;;;27.83;24.67;;;19.20;99.90;;;;;;5108767;28;20556;-84
2021/07/09 06:43:10;;;;;;;30.10;25.00;;;19.20;99.90;;;;;;5111486;28;20474;-83
2021/07/09 06:45:37;;;;;;;29.30;23.97;;;19.20;99.90;;;;;;5108014;28;20826;-82
2021/07/09 06:48:05;;;;;;;28.30;21.97;;;19.20;99.90;;;;;;5099437;28;20457;-83
2021/07/09 06:50:34;;;;;;;27.17;23.10;;;19.20;99.90;;;;;;5098903;28;20468;-83
2021/07/09 06:53:04;;;;;;;28.10;23.23;;;19.30;99.90;;;;;;5099519;28;20438;-84
2021/07/09 06:55:31;;;;;;;30.73;25.43;;;19.30;99.90;;;;;;5098497;28;20479;-84
2021/07/09 06:57:58;;;;;;;34.03;25.93;;;19.30;99.90;;;;;;5099314;28;21088;-84
2021/07/09 07:00:26;;;;;;;30.50;24.60;;;19.40;99.90;;;;;;5100917;28;20484;-85
2021/07/09 07:02:54;;;;;;;28.00;22.13;;;19.40;99.90;;;;;;5100940;28;20942;-85
2021/07/09 07:05:21;;;;;;;30.63;23.57;;;19.50;99.90;;;;;;5096159;28;20450;-85
2021/07/09 07:07:47;;;;;;;32.67;24.70;;;19.60;99.90;;;;;;5098887;28;20458;-84
2021/07/09 07:10:16;;;;;;;27.27;22.10;;;19.60;99.90;;;;;;5090193;28;20446;-84
2021/07/09 07:12:45;;;;;;;31.90;24.70;;;19.70;99.90;;;;;;5102913;28;20450;-85
2021/07/09 07:15:13;;;;;;;31.13;24.13;;;19.70;99.90;;;;;;5101941;28;20458;-84
2021/07/09 07:17:41;;;;;;;29.50;22.80;;;19.80;99.90;;;;;;5101632;28;20473;-85
2021/07/09 07:20:08;;;;;;;28.50;23.10;;;19.80;99.90;;;;;;5101197;28;20565;-85
2021/07/09 07:22:35;;;;;;;27.13;22.70;;;19.80;99.90;;;;;;5102602;28;20456;-86
2021/07/09 07:25:02;;;;;;;29.00;23.00;;;19.80;99.90;;;;;;5103004;28;20458;-84
2021/07/09 07:27:31;;;;;;;27.30;22.07;;;19.70;99.90;;;;;;5101525;28;20449;-84
2021/07/09 07:29:58;;;;;;;27.57;22.20;;;19.60;99.90;;;;;;5105311;28;20541;-84
2021/07/09 07:32:25;;;;;;;29.83;22.70;;;19.60;99.90;;;;;;5093821;28;20477;-85
2021/07/09 07:34:52;;;;;;;28.07;21.10;;;19.70;99.90;;;;;;5091327;28;20496;-84
2021/07/09 07:37:19;;;;;;;24.47;20.77;;;19.70;99.90;;;;;;5101025;28;20473;-85
2021/07/09 07:39:46;;;;;;;25.40;20.20;;;19.60;99.90;;;;;;5098269;28;20472;-85
2021/07/09 07:42:13;;;;;;;24.87;20.50;;;19.70;99.90;;;;;;5093434;28;21028;-85
2021/07/09 07:44:41;;;;;;;29.47;21.17;;;19.60;99.90;;;;;;5100246;28;20474;-86
2021/07/09 07:47:08;;;;;;;24.93;19.63;;;19.60;99.90;;;;;;5090200;28;20486;-84
2021/07/09 07:49:35;;;;;;;27.53;21.37;;;19.60;99.90;;;;;;5098988;28;20990;-84
2021/07/09 07:52:01;;;;;;;26.50;20.60;;;19.70;99.90;;;;;;5101109;28;20450;-84
2021/07/09 07:54:29;;;;;;;26.83;19.77;;;19.70;99.90;;;;;;5084421;28;20527;-84
2021/07/09 07:56:56;;;;;;;27.90;18.57;;;19.70;99.90;;;;;;5084303;28;20485;-84
2021/07/09 07:59:23;;;;;;;25.90;19.30;;;19.80;99.90;;;;;;5093352;28;20481;-85
2021/07/09 08:01:51;;;;;;;25.83;18.27;;;19.90;99.90;;;;;;5103087;28;20474;-85
2021/07/09 08:04:18;;;;;;;30.60;19.00;;;19.90;99.90;;;;;;5105846;28;20541;-85
2021/07/09 08:06:45;;;;;;;25.10;17.10;;;20.00;99.90;;;;;;5105863;28;20510;-84
2021/07/09 08:09:12;;;;;;;24.20;17.60;;;20.10;99.90;;;;;;5105391;28;20464;-84
2021/07/09 08:11:39;;;;;;;28.27;19.80;;;20.10;99.90;;;;;;5105728;28;20454;-84
2021/07/09 08:14:06;;;;;;;25.30;17.03;;;20.10;99.90;;;;;;5104181;28;20541;-85
2021/07/09 08:16:33;;;;;;;26.50;18.50;;;20.10;99.90;;;;;;5103773;28;20482;-84
2021/07/09 08:19:01;;;;;;;27.07;17.83;;;20.20;99.90;;;;;;5103213;28;20542;-85
2021/07/09 08:21:28;;;;;;;26.67;16.47;;;20.20;99.90;;;;;;5101600;28;20454;-85
2021/07/09 08:23:55;;;;;;;26.73;18.90;;;20.30;99.90;;;;;;5099664;28;20570;-85
2021/07/09 08:26:21;;;;;;;24.10;17.00;;;20.40;99.90;;;;;;5096825;28;20446;-85
2021/07/09 08:28:48;;;;;;;26.07;18.50;;;20.50;99.90;;;;;;5095374;28;20470;-85
2021/07/09 08:31:15;;;;;;;24.03;17.03;;;20.60;99.90;;;;;;5097251;28;20533;-85
2021/07/09 08:33:42;;;;;;;27.43;17.43;;;20.60;99.90;;;;;;5095286;28;20451;-85
2021/07/09 08:36:10;;;;;;;24.47;17.00;;;20.70;99.90;;;;;;5095256;28;20446;-85
2021/07/09 08:38:37;;;;;;;25.63;17.23;;;20.80;99.90;;;;;;5092982;28;20493;-86
2021/07/09 08:41:05;;;;;;;23.37;17.20;;;21.00;99.90;;;;;;5092963;28;20468;-85
2021/07/09 08:43:32;;;;;;;25.73;18.13;;;21.10;99.90;;;;;;5092937;28;20548;-85
2021/07/09 08:45:59;;;;;;;29.53;17.77;;;21.00;99.90;;;;;;5091907;28;21002;-85
2021/07/09 08:48:27;;;;;;;25.87;17.27;;;21.00;99.90;;;;;;5092036;28;20442;-85
2021/07/09 08:50:55;;;;;;;25.17;17.90;;;20.90;99.90;;;;;;5091770;28;20458;-86
2021/07/09 08:53:23;;;;;;;23.13;19.30;;;20.90;99.90;;;;;;5092303;28;20450;-87
2021/07/09 08:55:50;;;;;;;25.77;18.20;;;20.80;99.90;;;;;;5093750;28;21030;-86
2021/07/09 08:58:17;;;;;;;24.73;20.13;;;20.80;99.90;;;;;;5094647;28;21027;-86
2021/07/09 09:00:45;;;;;;;28.70;21.10;;;21.00;99.90;;;;;;5095193;28;21172;-86
2021/07/09 09:03:20;;;;;;;27.07;19.80;;;21.10;99.90;;;;;;5095981;28;20950;-85
2021/07/09 09:05:48;;;;;;;31.23;23.60;;;21.20;99.90;;;;;;5096372;28;20459;-85
2021/07/09 09:08:18;;;;;;;29.80;22.40;;;21.10;99.90;;;;;;5111701;28;20472;-87
2021/07/09 09:10:48;;;;;;;30.30;23.10;;;21.20;99.90;;;;;;5110047;28;20970;-85
2021/07/09 09:13:17;;;;;;;30.20;24.27;;;21.20;99.90;;;;;;5101642;28;20445;-86
2021/07/09 09:15:45;;;;;;;28.90;24.00;;;21.60;99.90;;;;;;5093715;28;20458;-85
2021/07/09 09:18:25;;;;;;;29.80;24.50;;;21.70;99.90;;;;;;5094671;28;20490;-87
2021/07/09 09:20:57;;;;;;;34.27;25.43;;;21.80;99.90;;;;;;5093934;28;20473;-86
2021/07/09 09:23:24;;;;;;;29.23;22.97;;;21.90;99.90;;;;;;5098366;28;20465;-85
2021/07/09 09:25:53;;;;;;;32.17;25.93;;;22.20;99.90;;;;;;5096232;28;20461;-86
2021/07/09 09:28:20;;;;;;;33.60;26.77;;;22.30;99.90;;;;;;5093781;28;20438;-86
2021/07/09 09:30:52;;;;;;;30.77;24.90;;;22.60;99.90;;;;;;5093895;28;20509;-86
2021/07/09 09:33:19;;;;;;;32.60;21.63;;;23.00;99.90;;;;;;5093319;28;20446;-87
2021/07/09 09:35:50;;;;;;;30.60;22.10;;;23.10;99.90;;;;;;5093084;28;20447;-87
2021/07/09 09:38:20;;;;;;;29.00;23.73;;;23.20;99.90;;;;;;5102008;28;21036;-87
2021/07/09 09:40:50;;;;;;;27.53;22.23;;;23.50;99.90;;;;;;5094770;28;20854;-85
2021/07/09 09:43:27;;;;;;;25.37;19.60;;;23.70;99.90;;;;;;5107153;28;20434;-86
2021/07/09 09:45:59;;;;;;;28.43;17.20;;;23.90;99.90;;;;;;5113555;28;20447;-87
2021/07/09 09:48:44;;;;;;;28.90;18.73;;;23.90;99.90;;;;;;5113199;28;20445;-87
2021/07/09 09:51:29;;;;;;;27.07;15.73;;;23.90;99.90;;;;;;5094244;28;20525;-86
2021/07/09 09:53:58;;;;;;;23.93;16.07;;;23.20;99.90;;;;;;5094953;28;20444;-86
2021/07/09 09:56:37;;;;;;;25.70;16.20;;;23.10;99.90;;;;;;5105344;28;20922;-87
2021/07/09 09:59:16;;;;;;;19.00;13.67;;;23.20;99.90;;;;;;5100323;28;20863;-87
2021/07/09 10:01:48;;;;;;;18.83;12.60;;;23.40;99.90;;;;;;5105944;28;20436;-86
2021/07/09 10:04:15;;;;;;;19.63;12.33;;;23.70;99.90;;;;;;5102631;28;20827;-85
2021/07/09 10:06:44;;;;;;;22.50;11.20;;;23.90;99.90;;;;;;5100420;28;20442;-86
2021/07/09 10:09:11;;;;;;;19.90;10.70;;;23.80;99.90;;;;;;5112039;22;20494;-85
2021/07/09 10:12:12;;;;;;;20.27;13.00;;;23.50;99.90;;;;;;5075535;28;20446;-85
2021/07/09 10:14:41;;;;;;;21.30;12.50;;;23.30;99.90;;;;;;5032532;28;20475;-85
2021/07/09 10:17:09;;;;;;;34.00;14.90;;;23.40;99.90;;;;;;5075299;28;20538;-87
2021/07/09 10:19:41;;;;;;;22.73;16.20;;;23.60;99.90;;;;;;5083464;28;20481;-86
2021/07/09 10:22:10;;;;;;;37.33;13.17;;;24.10;99.90;;;;;;5095691;28;20482;-88
2021/07/09 10:24:46;;;;;;;23.27;13.70;;;24.30;99.90;;;;;;5101775;28;20457;-88
2021/07/09 10:27:14;;;;;;;29.00;14.60;;;24.60;99.90;;;;;;5106823;28;21019;-88
2021/07/09 10:29:47;;;;;;;20.93;11.43;;;24.30;99.90;;;;;;5100805;28;21014;-89
2021/07/09 10:32:32;;;;;;;26.83;10.87;;;24.50;99.90;;;;;;5102856;28;20450;-89
2021/07/09 10:35:01;;;;;;;23.40;10.80;;;24.60;99.90;;;;;;5109588;28;20434;-88
2021/07/09 10:37:29;;;;;;;23.37;9.30;;;24.50;99.90;;;;;;5109111;28;20457;-88
2021/07/09 10:40:09;;;;;;;31.27;12.33;;;24.30;99.90;;;;;;5108225;28;20488;-89
2021/07/09 10:42:40;;;;;;;22.47;11.93;;;23.50;99.90;;;;;;5110833;28;20428;-87
2021/07/09 10:45:23;;;;;;;22.70;11.20;;;23.90;99.90;;;;;;5106003;28;20442;-88
2021/07/09 10:48:05;;;;;;;20.10;9.57;;;24.00;99.90;;;;;;5105521;28;20435;-89
2021/07/09 10:50:38;;;;;;;18.40;8.50;;;24.30;99.90;;;;;;5106046;28;20521;-87
2021/07/09 10:53:18;;;;;;;21.00;8.10;;;24.80;99.90;;;;;;5110315;28;20442;-88
2021/07/09 10:56:00;;;;;;;106.43;97.13;;;25.30;99.90;;;;;;5099252;28;20530;-89
2021/07/09 10:58:30;;;;;;;28.33;8.40;;;25.90;99.90;;;;;;5084109;28;20481;-88
2021/07/09 11:01:11;;;;;;;23.60;7.40;;;25.90;99.90;;;;;;5086226;28;20458;-89
2021/07/09 11:03:39;;;;;;;22.23;8.20;;;25.30;99.90;;;;;;5084843;28;20533;-88
2021/07/09 11:06:10;;;;;;;20.00;7.10;;;25.10;99.90;;;;;;5104796;28;20461;-87
2021/07/09 11:09:01;;;;;;;19.13;7.63;;;24.70;99.90;;;;;;5093995;28;20454;-89
2021/07/09 11:11:37;;;;;;;16.93;6.47;;;24.40;99.90;;;;;;5097253;28;20492;-88
2021/07/09 11:14:05;;;;;;;16.90;6.20;;;24.40;99.90;;;;;;5093560;28;20525;-86
2021/07/09 11:16:36;;;;;;;26.67;5.03;;;25.00;99.90;;;;;;5089619;28;20446;-88
2021/07/09 11:19:15;;;;;;;15.30;3.53;;;25.50;99.90;;;;;;5085637;28;20830;-87
2021/07/09 11:22:06;;;;;;;22.70;4.03;;;26.10;99.90;;;;;;5111055;28;20482;-87
2021/07/09 11:24:35;;;;;;;532.77;502.27;;;26.60;99.90;;;;;;5104945;28;20446;-89
2021/07/09 11:27:05;;;;;;;1999.90;999.90;;;27.00;99.90;;;;;;5106780;28;20533;-87
2021/07/09 11:29:34;;;;;;;1999.90;999.90;;;27.10;99.90;;;;;;5107278;28;20494;-88
2021/07/09 11:32:05;;;;;;;1999.90;999.90;;;27.30;99.90;;;;;;5104737;28;20477;-88
2021/07/09 11:34:33;;;;;;;1999.90;999.90;;;27.70;99.90;;;;;;5093719;28;20460;-85
2021/07/09 11:37:01;;;;;;;1999.90;999.90;;;27.90;99.90;;;;;;5093157;28;20454;-85
2021/07/09 11:39:30;;;;;;;1999.90;999.90;;;27.80;99.90;;;;;;5093834;28;21028;-86
2021/07/09 11:42:05;;;;;;;1999.90;999.90;;;27.30;99.90;;;;;;5095194;28;20443;-85
2021/07/09 11:44:33;;;;;;;1999.90;999.90;;;27.00;99.90;;;;;;5112136;28;20494;-86
2021/07/09 11:47:04;;;;;;;258.70;239.10;;;26.60;99.90;;;;;;5113212;28;20596;-86
2021/07/09 11:49:32;;;;;;;1999.90;999.90;;;26.10;99.90;;;;;;5106486;28;21041;-86
2021/07/09 11:52:00;;;;;;;808.77;745.80;;;25.90;99.90;;;;;;5091007;28;20446;-85
2021/07/09 11:54:33;;;;;;;1999.90;999.90;;;25.80;99.90;;;;;;5091584;28;20446;-85
2021/07/09 11:57:06;;;;;;;1999.90;999.90;;;26.00;99.90;;;;;;5091344;28;20449;-85
2021/07/09 11:59:33;;;;;;;1999.90;999.90;;;26.00;99.90;;;;;;5091782;28;20490;-86
2021/07/09 12:02:16;;;;;;;1999.90;999.90;;;25.70;99.90;;;;;;5091273;28;20450;-86
2021/07/09 12:04:48;;;;;;;1999.90;999.90;;;25.30;99.90;;;;;;5092212;28;20442;-85
2021/07/09 12:07:38;;;;;;;1999.90;999.90;;;25.10;99.90;;;;;;5091414;28;20897;-87
2021/07/09 12:10:08;;;;;;;1999.90;999.90;;;24.90;99.90;;;;;;5089465;28;20454;-85
2021/07/09 12:12:38;;;;;;;1999.90;999.90;;;25.20;99.90;;;;;;5091644;28;20968;-87
2021/07/09 12:15:11;;;;;;;307.60;288.50;;;25.50;99.90;;;;;;5091421;28;20499;-88
2021/07/09 12:17:42;;;;;;;1999.90;999.90;;;25.50;99.90;;;;;;5082396;28;20450;-87
2021/07/09 12:20:15;;;;;;;1999.90;999.90;;;25.20;99.90;;;;;;5088390;28;20482;-86
2021/07/09 12:22:48;;;;;;;1999.90;999.90;;;25.30;99.90;;;;;;5091595;28;20452;-86
2021/07/09 12:25:17;;;;;;;56.90;19.50;;;25.30;99.90;;;;;;5086807;28;20454;-86
2021/07/09 12:27:45;;;;;;;381.77;356.80;;;25.30;99.90;;;;;;5089931;28;20473;-86
2021/07/09 12:30:14;;;;;;;296.20;275.77;;;25.00;99.90;;;;;;5089206;28;20978;-86
2021/07/09 12:32:51;;;;;;;1999.90;999.90;;;25.00;99.90;;;;;;5090816;28;20450;-86
2021/07/09 12:35:20;;;;;;;1999.90;999.90;;;25.00;99.90;;;;;;5095050;28;20523;-86
2021/07/09 12:37:57;;;;;;;1999.90;999.90;;;25.00;99.90;;;;;;5095855;28;20486;-88
2021/07/09 12:40:29;;;;;;;1999.90;999.90;;;25.00;99.90;;;;;;5093916;28;20468;-86
2021/07/09 12:43:12;;;;;;;1999.90;999.90;;;25.50;99.90;;;;;;5075532;28;20484;-87
2021/07/09 12:45:39;;;;;;;225.00;209.80;;;25.80;99.90;;;;;;5093119;28;20461;-86